Galesville, MD

1:52 PM EDT on August 20, 2014 (GMT -0400)
West River | Change Station
CLOSE
Current Station
Personal Weather Station
Location: Galesville, MD
Elevation: 15 ft
Nearby Weather Stations

Elev 15 ft 38.85 °N, 76.54 °W | Updated 10 minutes ago

Partly Cloudy
Partly Cloudy
79.8 °F
Feels Like 81 °F
N
7.0
Wind Variable Wind from SSW
Gusts 11.0 mph

Today
High -- | Low -- °F
--% Chance of Precip.
Yesterday
High -- | Low -- °F
Precip. -- in
6:24 AM 7:54 PM
Waning Crescent, 20% visible
Pressure 29.99 in
Visibility 10.0 miles
Clouds Few 8000 ft
Heat Index 81 °F
Dew Point 64 °F
Humidity 59%
Rainfall 0.00 in
Snow Depth Not available.
UV 10 out of 12
Pollen 9.10 out of 12
Air Quality Not available.
Flu Activity Not available.
METAR KNAK 201654Z AUTO 12008KT 10SM FEW080 26/18 A2998 RMK AO2 SLP155 T02560178 $

More Conditions Fewer Conditions

Pressure 29.99 in
Visibility 10.0 miles
Clouds Few 8000 ft
Heat Index 81 °F
Dew Point 64 °F
Humidity 59%
Rainfall 0.00 in
Snow Depth Not available.
UV 10 out of 12
Pollen 9.10 out of 12
Air Quality Not available.
Flu Activity Not available.
METAR KNAK 201654Z AUTO 12008KT 10SM FEW080 26/18 A2998 RMK AO2 SLP155 T02560178 $

More Conditions Fewer Conditions

10-Day Weather Forecast

Almanac

Astronomy

Aug. 20, 2014 Rise Set
Actual Time 6:24 AM EDT 7:54 PM EDT
Civil Twilight 5:56 AM EDT 8:22 PM EDT
Nautical Twilight 5:22 AM EDT 8:55 PM EDT
Astronomical Twilight 4:46 AM EDT 9:31 PM EDT
Moon 2:03 AM EDT 4:36 PM EDT
Length of Visible Light 14h 25m
Length of Day
13h 29m
Tomorrow will be 2m 18s shorter.
Waning Crescent, 20% of the Moon is Illuminated
Today
Waning Crescent
Aug 25
New
Sep 2
First Quarter
Sep 8
Full
Sep 15
Last Quarter

Today's Extremes

State Highs State Lows

Community

WunderPhotos

Upload Photos

1,745,699 photos uploaded!

WunderBlogs® & News

By Dr. Jeff Masters
Director of Meteorology, Weather Underground
By Kari Strenfel
Meteorologist, Weather Underground
By Christopher C. Burt
Weather Historian, Weather Underground
August 20, 2014
August 20, 2014
August 20, 2014

Nearby

Snow Depth

Station Depth Elevation
No new snow has been reported.

Earthquake Activity

City Distance Mag. Time & Date
No recent earthquake activity has been reported nearby.
Minimum magnitude displayed is 2.5.

Coastal Water Temperatures

Place Temperature
Cambridge, MD 78.1 °F
Tolchester Beach, MD 78.1 °F
Baltimore, MD 80.1 °F

Nearby Weather Stations